createdAt,value
2018-06-12T00:03:54.016Z,4.00
2018-06-12T00:08:57.628Z,2.30
2018-06-12T00:14:01.241Z,8.13
2018-06-12T00:19:05.098Z,6.57
2018-06-12T00:24:10.121Z,8.33
2018-06-12T00:29:13.816Z,8.20
2018-06-12T00:34:17.957Z,8.57
2018-06-12T00:39:21.693Z,7.30
2018-06-12T00:44:25.927Z,6.27
2018-06-12T00:49:31.447Z,5.83
2018-06-12T00:54:35.086Z,5.80
2018-06-12T00:59:38.737Z,7.63
2018-06-12T01:04:42.373Z,12.63
2018-06-12T01:09:46.085Z,10.00
2018-06-12T01:14:49.771Z,9.10
2018-06-12T01:19:54.364Z,13.50
2018-06-12T01:24:57.992Z,10.33
2018-06-12T01:30:01.739Z,5.33
2018-06-12T01:35:06.373Z,8.07
2018-06-12T01:40:10.468Z,11.33
2018-06-12T01:45:14.206Z,15.00
2018-06-12T01:50:18.097Z,11.00
2018-06-12T01:55:22.637Z,10.90
2018-06-12T02:00:26.298Z,14.03
2018-06-12T02:05:31.832Z,8.23
2018-06-12T02:10:43.368Z,10.07
2018-06-12T02:15:47.085Z,8.37
2018-06-12T02:20:51.009Z,8.07
2018-06-12T02:25:54.317Z,6.50
2018-06-12T02:31:09.007Z,5.67
2018-06-12T02:36:12.628Z,10.70
2018-06-12T02:41:16.252Z,11.40
2018-06-12T02:46:19.872Z,8.97
2018-06-12T02:51:23.765Z,8.37
2018-06-12T02:56:28.166Z,8.23
2018-06-12T03:01:31.941Z,8.50
2018-06-12T03:06:36.506Z,8.37
2018-06-12T03:11:40.817Z,7.70
2018-06-12T03:16:44.439Z,7.63
2018-06-12T03:21:48.375Z,14.13
2018-06-12T03:26:52.128Z,6.63
2018-06-12T03:31:55.743Z,6.30
2018-06-12T03:36:59.372Z,8.23
2018-06-12T03:42:03.149Z,4.57
2018-06-12T03:47:06.784Z,9.83
2018-06-12T03:52:10.397Z,7.97
2018-06-12T03:57:14.461Z,10.50
2018-06-12T04:02:19.957Z,7.10
2018-06-12T04:07:24.292Z,8.40
2018-06-12T04:12:27.921Z,8.43
2018-06-12T04:17:31.573Z,8.70
2018-06-12T04:22:35.203Z,7.27
2018-06-12T04:27:38.868Z,11.23
2018-06-12T04:32:42.471Z,10.30
2018-06-12T04:37:46.123Z,8.53
2018-06-12T04:42:49.736Z,12.27
2018-06-12T04:47:53.336Z,7.73
2018-06-12T04:52:57.324Z,9.47
2018-06-12T04:58:01.000Z,10.00
2018-06-12T05:03:05.175Z,13.37
2018-06-12T05:08:09.131Z,9.17
2018-06-12T05:13:14.573Z,7.57
2018-06-12T05:18:20.411Z,10.73
2018-06-12T05:23:24.106Z,12.80
2018-06-12T05:28:36.636Z,11.53
2018-06-12T05:33:40.255Z,7.87
2018-06-12T05:38:44.283Z,7.80
2018-06-12T05:43:47.937Z,11.47
2018-06-12T05:48:51.568Z,10.80
2018-06-12T05:53:55.221Z,12.20
2018-06-12T05:58:58.885Z,6.43
2018-06-12T06:04:02.649Z,8.57
2018-06-12T06:09:08.751Z,13.07
2018-06-12T06:14:12.423Z,12.73
2018-06-12T06:19:16.182Z,11.43
2018-06-12T06:24:20.423Z,10.17
2018-06-12T06:29:24.120Z,7.43
2018-06-12T06:34:27.789Z,9.63
2018-06-12T06:39:31.509Z,7.80
2018-06-12T06:44:34.806Z,6.83
2018-06-12T06:49:39.075Z,7.83
2018-06-12T06:54:43.625Z,8.73
2018-06-12T06:59:47.379Z,5.13
2018-06-12T07:04:51.056Z,3.30
2018-06-12T07:09:55.501Z,11.03
2018-06-12T07:14:59.171Z,5.30
2018-06-12T07:20:02.929Z,3.63
2018-06-12T07:25:07.277Z,4.67
2018-06-12T07:30:10.977Z,5.33
2018-06-12T07:35:15.318Z,4.77
2018-06-12T07:40:18.985Z,6.30
2018-06-12T07:45:22.920Z,3.43
2018-06-12T07:50:26.576Z,3.70
2018-06-12T07:55:30.230Z,3.57
2018-06-12T08:00:33.905Z,5.33
2018-06-12T08:05:37.577Z,3.43
2018-06-12T08:10:41.707Z,4.50
2018-06-12T08:15:45.360Z,4.37
2018-06-12T08:20:49.031Z,2.77
2018-06-12T08:25:52.848Z,4.90
2018-06-12T08:30:56.508Z,2.70
2018-06-12T08:36:01.685Z,4.80
2018-06-12T08:41:05.388Z,5.17
2018-06-12T08:46:09.540Z,4.53
2018-06-12T08:51:13.159Z,5.03
2018-06-12T08:56:17.224Z,4.77
2018-06-12T09:01:20.895Z,4.47
2018-06-12T09:06:25.328Z,5.17
2018-06-12T09:11:28.988Z,3.50
2018-06-12T09:16:32.679Z,5.60
2018-06-12T09:21:36.311Z,5.77
2018-06-12T09:26:40.008Z,3.60
2018-06-12T09:31:44.549Z,3.60
2018-06-12T09:36:48.444Z,4.20
2018-06-12T09:41:52.820Z,6.40
2018-06-12T09:46:56.526Z,4.00
2018-06-12T09:52:00.293Z,3.17
2018-06-12T09:57:04.334Z,3.80
2018-06-12T10:02:08.022Z,4.57
2018-06-12T10:07:11.675Z,2.77
2018-06-12T10:12:15.377Z,2.47
2018-06-12T10:17:19.035Z,9.40
2018-06-12T10:22:22.666Z,5.90
2018-06-12T10:27:26.329Z,4.97
2018-06-12T10:32:29.983Z,3.50
2018-06-12T10:37:33.704Z,6.40
2018-06-12T10:42:37.343Z,11.33
2018-06-12T10:47:42.719Z,4.80
2018-06-12T10:52:46.378Z,4.20
2018-06-12T10:57:50.744Z,7.43
2018-06-12T11:02:54.389Z,3.47
2018-06-12T11:07:58.399Z,2.90
2018-06-12T11:13:02.307Z,7.10
2018-06-12T11:18:06.486Z,6.10
2018-06-12T11:23:10.234Z,1.90
2018-06-12T11:28:13.962Z,2.70
2018-06-12T11:33:17.658Z,3.30
2018-06-12T11:38:21.649Z,5.00
2018-06-12T11:43:25.588Z,6.17
2018-06-12T11:48:29.595Z,4.27
2018-06-12T11:53:33.264Z,3.60
2018-06-12T11:58:37.206Z,2.87
2018-06-12T12:03:40.964Z,2.53
2018-06-12T12:08:45.487Z,3.90
2018-06-12T12:13:48.796Z,4.73
2018-06-12T12:19:15.801Z,4.60
2018-06-12T12:24:19.478Z,3.80
2018-06-12T12:29:23.140Z,4.90
2018-06-12T12:34:27.789Z,4.47
2018-06-12T12:39:31.511Z,2.67
2018-06-12T12:44:35.172Z,8.10
2018-06-12T12:49:39.685Z,4.40
2018-06-12T12:54:44.404Z,4.97
2018-06-12T12:59:48.767Z,4.60
2018-06-12T13:04:52.453Z,4.60
2018-06-12T13:09:56.174Z,3.90
2018-06-12T13:14:59.823Z,4.87
2018-06-12T13:20:03.568Z,5.53
2018-06-12T13:25:11.090Z,2.90
2018-06-12T13:30:14.772Z,3.83
2018-06-12T13:35:18.522Z,3.90
2018-06-12T13:40:22.988Z,4.63
2018-06-12T13:45:27.146Z,3.10
2018-06-12T13:50:30.829Z,6.03
2018-06-12T13:55:34.497Z,5.30
2018-06-12T14:00:38.276Z,3.30
2018-06-12T14:05:41.975Z,5.57
2018-06-12T14:10:46.328Z,4.67
2018-06-12T14:15:50.037Z,3.80
2018-06-12T14:20:53.681Z,3.97
2018-06-12T14:25:57.372Z,4.03
2018-06-12T14:31:01.721Z,6.80
2018-06-12T14:36:05.531Z,4.90
2018-06-12T14:41:09.222Z,4.70
2018-06-12T14:46:12.872Z,7.43
2018-06-12T14:51:17.248Z,3.97
2018-06-12T14:56:21.396Z,3.77
2018-06-12T15:01:26.641Z,3.13
2018-06-12T15:06:30.313Z,2.97
2018-06-12T15:11:33.973Z,3.90
2018-06-12T15:16:37.637Z,6.47
2018-06-12T15:21:42.181Z,2.37
2018-06-12T15:26:46.075Z,3.57
2018-06-12T15:37:00.449Z,4.00
2018-06-12T15:42:04.517Z,3.70
2018-06-12T15:47:08.885Z,3.83
2018-06-12T15:52:12.564Z,2.80
2018-06-12T15:57:16.673Z,1.77
2018-06-12T16:02:20.692Z,1.67
2018-06-12T16:07:24.378Z,6.53
2018-06-12T16:12:28.067Z,3.50
2018-06-12T16:17:31.731Z,4.13
2018-06-12T16:22:36.334Z,7.40
2018-06-12T16:27:40.109Z,3.50
2018-06-12T16:32:43.765Z,2.57
2018-06-12T16:37:47.559Z,1.97
2018-06-12T16:42:51.250Z,5.10
2018-06-12T16:47:55.411Z,4.47
2018-06-12T16:52:59.358Z,4.37
2018-06-12T16:58:02.687Z,4.57
2018-06-12T17:03:06.725Z,2.93
2018-06-12T17:08:10.390Z,3.27
2018-06-12T17:13:17.094Z,5.60
2018-06-12T17:18:21.055Z,4.00
2018-06-12T17:23:24.355Z,3.93
2018-06-12T17:28:28.052Z,7.40
2018-06-12T17:33:31.720Z,4.07
2018-06-12T17:38:35.788Z,5.53
2018-06-12T17:43:39.749Z,3.10
2018-06-12T17:48:43.364Z,2.60
2018-06-12T17:53:48.180Z,7.00
2018-06-12T17:58:52.790Z,6.50
2018-06-12T18:03:56.446Z,4.60
2018-06-12T18:09:01.489Z,15.13
2018-06-12T18:14:10.085Z,5.10
2018-06-12T18:19:13.867Z,9.97
2018-06-12T18:24:17.511Z,3.57
2018-06-12T18:29:22.132Z,2.47
2018-06-12T18:34:25.994Z,8.00
2018-06-12T18:39:29.679Z,5.90
2018-06-12T18:44:33.693Z,5.13
2018-06-12T18:49:37.730Z,7.73
2018-06-12T18:54:42.405Z,5.00
2018-06-12T18:59:46.186Z,6.63
2018-06-12T19:04:50.225Z,4.40
2018-06-12T19:09:53.933Z,3.60
2018-06-12T19:14:57.659Z,5.10
2018-06-12T19:20:01.408Z,12.43
2018-06-12T19:25:05.071Z,6.07
2018-06-12T19:30:08.684Z,8.20
2018-06-12T19:35:13.227Z,6.67
2018-06-12T19:40:17.856Z,3.77
2018-06-12T19:45:22.147Z,3.50
2018-06-12T19:50:25.779Z,5.70
2018-06-12T19:55:29.464Z,4.80
2018-06-12T20:00:33.477Z,5.53
2018-06-12T20:05:38.315Z,6.10
2018-06-12T20:10:42.278Z,3.80
2018-06-12T20:15:45.972Z,4.57
2018-06-12T20:25:59.946Z,7.40
2018-06-12T20:31:03.591Z,6.20
2018-06-12T20:36:08.045Z,3.73
2018-06-12T20:41:11.868Z,4.43
2018-06-12T20:46:15.952Z,3.20
2018-06-12T20:51:21.998Z,5.00
2018-06-12T20:56:26.679Z,2.93
2018-06-12T21:01:30.413Z,7.90
2018-06-12T21:06:36.654Z,3.13
2018-06-12T21:11:40.417Z,5.53
2018-06-12T21:16:46.027Z,5.23
2018-06-12T21:21:49.768Z,2.50
2018-06-12T21:26:53.654Z,3.43
2018-06-12T21:32:00.190Z,2.30
2018-06-12T21:37:05.780Z,3.27
2018-06-12T21:42:09.795Z,2.20
2018-06-12T21:47:13.776Z,4.97
2018-06-12T21:52:17.391Z,3.17
2018-06-12T21:57:21.807Z,3.03
2018-06-12T22:02:25.470Z,2.27
2018-06-12T22:07:29.091Z,3.70
2018-06-12T22:12:32.924Z,2.50
2018-06-12T22:17:46.462Z,3.13
2018-06-12T22:22:50.221Z,3.00
2018-06-12T22:27:53.849Z,2.90
2018-06-12T22:32:57.583Z,4.57
2018-06-12T22:38:01.733Z,2.77
2018-06-12T22:43:05.944Z,2.60
2018-06-12T22:48:09.579Z,1.83
2018-06-12T22:53:13.508Z,4.20
2018-06-12T22:58:17.167Z,2.10
2018-06-12T23:03:21.198Z,1.93
2018-06-12T23:08:24.931Z,2.40
2018-06-12T23:13:28.594Z,2.40
2018-06-12T23:18:32.236Z,3.97
2018-06-12T23:23:35.865Z,1.90
2018-06-12T23:28:39.691Z,2.27
2018-06-12T23:33:43.955Z,2.17
2018-06-12T23:38:47.591Z,3.83
2018-06-12T23:43:51.231Z,1.90
2018-06-12T23:48:54.884Z,2.33
2018-06-12T23:53:58.828Z,3.33
2018-06-12T23:59:02.643Z,4.00
